createdAt,value
2022-07-25T05:11:48.661Z,20.70
2022-07-25T05:16:44.330Z,20.80
2022-07-25T05:33:37.453Z,21.40
2022-07-25T05:38:31.473Z,21.60
2022-07-25T05:43:25.091Z,21.80
2022-07-25T05:48:18.816Z,22.00
2022-07-25T05:53:14.039Z,22.10
2022-07-25T06:07:37.689Z,22.70
2022-07-25T06:12:33.713Z,22.90
2022-07-25T06:17:32.528Z,23.00
2022-07-25T06:22:26.659Z,23.20
2022-07-25T06:27:26.124Z,23.40
2022-07-25T06:32:22.626Z,23.50
2022-07-25T06:37:16.282Z,23.60
2022-07-25T06:42:09.870Z,23.90
2022-07-25T06:47:05.758Z,24.00
2022-07-25T06:51:59.471Z,24.10
2022-07-25T06:56:53.146Z,24.30
2022-07-25T07:01:51.313Z,24.50
2022-07-25T07:06:46.976Z,24.70
2022-07-25T07:11:40.845Z,24.80
2022-07-25T07:16:34.744Z,25.00
2022-07-25T07:21:28.507Z,25.20
2022-07-25T07:26:24.937Z,25.40
2022-07-25T07:31:19.383Z,25.50
2022-07-25T07:36:13.161Z,25.60
2022-07-25T07:41:06.733Z,25.70
2022-07-25T07:46:01.973Z,25.90
2022-07-25T07:50:55.676Z,26.10
2022-07-25T07:55:55.302Z,26.30
2022-07-25T08:00:52.093Z,26.40
2022-07-25T08:05:51.989Z,26.40
2022-07-25T08:10:47.182Z,26.60
2022-07-25T08:15:41.145Z,26.70
2022-07-25T08:20:38.230Z,26.90
2022-07-25T08:25:33.544Z,26.80
2022-07-25T08:30:27.415Z,27.10
2022-07-25T08:35:21.604Z,27.30
2022-07-25T08:40:16.920Z,27.40
2022-07-25T08:45:14.498Z,27.40
2022-07-25T08:50:10.436Z,27.60
2022-07-25T08:55:04.671Z,27.70
2022-07-25T09:00:01.446Z,28.00
2022-07-25T09:05:40.376Z,28.20
2022-07-25T09:10:33.885Z,28.30
2022-07-25T09:15:29.581Z,28.60
2022-07-25T09:20:25.093Z,28.80
2022-07-25T09:25:23.719Z,29.00
2022-07-25T09:30:17.955Z,29.30
2022-07-25T09:35:11.608Z,29.50
2022-07-25T09:40:15.458Z,29.30
2022-07-25T09:45:11.848Z,29.60
2022-07-25T09:50:07.250Z,29.80
2022-07-25T09:55:06.521Z,30.20
2022-07-25T10:00:01.933Z,30.40
2022-07-25T10:05:14.624Z,30.60
2022-07-25T10:10:25.345Z,30.90
2022-07-25T10:15:20.356Z,31.20
2022-07-25T10:20:16.359Z,31.40
2022-07-25T10:25:17.824Z,31.60
2022-07-25T10:30:21.340Z,31.70
2022-07-25T10:35:18.716Z,32.10
2022-07-25T10:40:30.122Z,32.20
2022-07-25T10:45:28.242Z,32.40
2022-07-25T10:50:40.230Z,32.60
2022-07-25T10:55:39.304Z,32.80
2022-07-25T11:00:33.586Z,33.00
2022-07-25T11:05:27.343Z,33.30
2022-07-25T11:10:27.795Z,33.50
2022-07-25T11:15:25.779Z,33.60
2022-07-25T11:20:19.646Z,33.70
2022-07-25T11:25:15.038Z,33.80
2022-07-25T11:30:12.747Z,33.80
2022-07-25T11:35:08.694Z,34.00
2022-07-25T11:40:03.751Z,34.60
2022-07-25T11:44:57.275Z,34.50
2022-07-25T11:49:52.477Z,34.60
2022-07-25T11:54:54.618Z,35.10
2022-07-25T11:59:48.083Z,35.40
2022-07-25T12:04:41.634Z,35.70
2022-07-25T12:09:35.210Z,35.80
2022-07-25T12:14:35.129Z,35.90
2022-07-25T12:19:29.078Z,36.10
2022-07-25T12:24:22.891Z,36.30
2022-07-25T12:29:16.437Z,36.10
2022-07-25T12:34:11.535Z,36.40
2022-07-25T12:39:05.375Z,36.30
2022-07-25T12:44:00.559Z,36.30
2022-07-25T12:48:54.231Z,36.50
2022-07-25T12:53:49.202Z,36.90
2022-07-25T12:58:42.687Z,37.30
2022-07-25T13:03:36.329Z,37.60
2022-07-25T13:08:30.031Z,37.50
2022-07-25T13:13:25.254Z,37.50
2022-07-25T13:18:19.075Z,37.80
2022-07-25T13:23:15.239Z,37.80
2022-07-25T13:28:11.291Z,37.60
2022-07-25T13:33:07.337Z,37.60
2022-07-25T13:38:00.805Z,37.70
2022-07-25T13:42:54.366Z,37.90
2022-07-25T13:47:56.392Z,38.00
2022-07-25T13:53:02.137Z,37.80
2022-07-25T13:57:55.708Z,38.00
2022-07-25T14:02:49.280Z,38.30
2022-07-25T14:07:45.507Z,38.50
2022-07-25T14:12:40.866Z,38.40
2022-07-25T14:17:41.891Z,38.20
2022-07-25T14:22:42.222Z,38.50
2022-07-25T14:27:39.142Z,38.40
2022-07-25T14:32:34.909Z,38.30
2022-07-25T14:37:31.632Z,38.50
2022-07-25T14:42:25.559Z,38.70
2022-07-25T14:47:19.331Z,38.60
2022-07-25T14:52:14.887Z,38.40
2022-07-25T14:57:09.209Z,37.80
2022-07-25T15:02:03.794Z,38.00
2022-07-25T15:06:57.808Z,38.20
2022-07-25T15:11:52.783Z,37.90
2022-07-25T15:16:48.446Z,36.80
2022-07-25T15:21:42.448Z,36.80
2022-07-25T15:26:36.495Z,37.00
2022-07-25T15:31:31.727Z,36.70
2022-07-25T15:36:29.290Z,36.20
2022-07-25T15:41:23.459Z,36.50
2022-07-25T15:46:18.505Z,36.80
2022-07-25T15:51:16.685Z,37.30
2022-07-25T15:56:10.625Z,37.50
2022-07-25T16:01:05.416Z,37.50
2022-07-25T16:05:59.323Z,37.60
2022-07-25T16:10:54.750Z,37.70
2022-07-25T16:15:48.727Z,38.00
2022-07-25T16:20:42.727Z,38.20
2022-07-25T16:25:36.502Z,38.00
2022-07-25T16:30:31.808Z,38.00
2022-07-25T16:35:26.262Z,38.00
2022-07-25T16:40:23.781Z,37.80
2022-07-25T16:45:19.965Z,37.20
2022-07-25T16:50:15.544Z,36.40
2022-07-25T16:55:10.308Z,35.80
2022-07-25T17:00:06.513Z,35.50
2022-07-25T17:05:00.577Z,35.00
2022-07-25T17:09:55.779Z,34.50
2022-07-25T17:14:49.882Z,34.20
2022-07-25T17:19:43.533Z,33.90
2022-07-25T17:24:37.722Z,33.60
2022-07-25T17:29:32.887Z,33.20
2022-07-25T17:34:27.010Z,32.90
2022-07-25T17:39:21.226Z,32.70
2022-07-25T17:44:15.125Z,32.40
2022-07-25T17:49:10.640Z,32.20
2022-07-25T17:54:04.616Z,32.00
2022-07-25T17:58:58.455Z,31.70
2022-07-25T18:03:54.913Z,31.50
2022-07-25T18:08:50.408Z,31.10
2022-07-25T18:13:44.001Z,30.60
2022-07-25T18:18:40.908Z,30.40
2022-07-25T18:23:34.459Z,30.20
2022-07-25T18:28:31.205Z,29.90
2022-07-25T18:33:25.856Z,29.80
2022-07-25T18:38:19.756Z,29.80
2022-07-25T18:43:15.251Z,29.60
2022-07-25T18:48:14.446Z,29.30
2022-07-25T18:53:11.096Z,29.20
2022-07-25T18:58:08.982Z,29.10
2022-07-25T19:03:04.984Z,29.00
2022-07-25T19:08:01.066Z,29.00
2022-07-25T19:12:54.816Z,28.80
2022-07-25T19:17:48.900Z,28.70
2022-07-25T19:22:43.875Z,28.50
2022-07-25T19:27:43.141Z,28.50
2022-07-25T19:32:37.808Z,28.30
2022-07-25T19:37:35.748Z,28.30
2022-07-25T19:42:32.638Z,28.30
2022-07-25T19:52:54.038Z,28.00
2022-07-25T19:57:51.362Z,27.80
2022-07-25T20:02:46.948Z,27.80
2022-07-25T20:07:51.446Z,27.70
2022-07-25T20:12:45.055Z,27.60
2022-07-25T20:17:39.043Z,27.50
2022-07-25T20:22:40.361Z,27.30
2022-07-25T20:27:35.163Z,27.20
2022-07-25T20:32:28.700Z,27.10
2022-07-25T20:37:29.393Z,27.20
2022-07-25T20:42:24.875Z,27.20
2022-07-25T20:47:20.818Z,27.20
